Time;durP1;ratioP1;P1;durP2;ratioP2;P2;SDS_P1;SDS_P2;PMS_P1;PMS_P2;Temp;Humidity;BMP_temperature;BMP_pressure;BME280_temperature;BME280_humidity;BME280_pressure;Samples;Min_cycle;Max_cycle;Signal;HPM_P1;HPM_P2
2024/01/25 00:00:12;;;;;;;15.93;4.63;;;8.20;99.90;;;9.07;91.02;99049.25;10349456;28;20227;-61
2024/01/25 00:05:15;;;;;;;14.02;4.40;;;8.30;99.90;;;8.89;91.94;99056.25;10346992;28;20233;-61
2024/01/25 00:10:19;;;;;;;13.20;4.15;;;8.30;99.90;;;8.93;91.78;99050.66;10346399;28;20233;-61
2024/01/25 00:15:24;;;;;;;18.48;4.50;;;8.30;99.90;;;9.06;91.45;99050.00;10342597;28;20724;-61
2024/01/25 00:20:27;;;;;;;15.23;5.03;;;8.40;99.90;;;9.05;91.79;99035.47;10375856;28;20252;-61
2024/01/25 00:25:30;;;;;;;18.90;4.60;;;8.30;99.90;;;9.07;90.83;99035.56;10395958;28;20230;-61
2024/01/25 00:30:35;;;;;;;14.45;4.35;;;8.30;99.90;;;9.02;91.50;99033.56;10395264;28;20235;-61
2024/01/25 00:35:39;;;;;;;16.50;5.07;;;8.30;99.90;;;9.10;89.92;99020.53;10392197;28;20228;-61
2024/01/25 00:40:43;;;;;;;19.00;5.07;;;8.40;99.90;;;9.07;90.85;99021.19;10391467;28;20236;-61
2024/01/25 00:45:49;;;;;;;14.95;4.95;;;8.40;99.90;;;8.95;91.28;99031.25;10355873;28;20234;-60
2024/01/25 00:50:53;;;;;;;17.90;5.40;;;8.30;99.90;;;8.96;91.37;99025.41;10346666;28;20608;-61
2024/01/25 00:55:57;;;;;;;15.15;4.95;;;8.40;99.90;;;9.06;92.49;99028.69;10380028;28;20461;-61
2024/01/25 01:01:02;;;;;;;16.98;5.38;;;8.40;99.90;;;9.20;90.92;99021.41;10365157;28;20232;-61
2024/01/25 01:06:07;;;;;;;17.10;4.65;;;8.50;99.90;;;9.20;91.98;99010.31;10358886;28;20320;-61
2024/01/25 01:11:10;;;;;;;17.08;4.93;;;8.50;99.90;;;9.27;91.42;99010.06;10360365;28;20399;-61
2024/01/25 01:16:15;;;;;;;15.93;4.53;;;8.70;99.90;;;9.19;91.10;98998.34;10359135;28;20222;-61
2024/01/25 01:21:18;;;;;;;14.45;4.85;;;8.50;99.90;;;9.27;91.10;98999.84;10361709;28;20241;-61
2024/01/25 01:26:21;;;;;;;14.75;4.63;;;8.50;99.90;;;9.20;91.54;99007.75;10364172;28;20235;-60
2024/01/25 01:31:26;;;;;;;13.77;4.55;;;8.50;99.90;;;9.28;91.90;99014.38;10361615;28;20238;-61
2024/01/25 01:36:29;;;;;;;18.33;4.60;;;8.60;99.90;;;9.32;91.45;99007.84;10364339;28;20230;-61
2024/01/25 01:41:33;;;;;;;16.88;5.15;;;8.60;99.90;;;9.37;92.30;99011.66;10360249;28;20226;-61
2024/01/25 01:46:39;;;;;;;21.45;5.20;;;8.70;99.90;;;9.29;93.05;99003.38;10362155;28;20792;-63
2024/01/25 01:51:43;;;;;;;18.45;4.63;;;8.70;99.90;;;9.40;92.72;99023.00;10359885;28;20269;-61
2024/01/25 01:56:47;;;;;;;17.17;5.30;;;8.70;99.90;;;9.42;92.84;99028.25;10359699;28;20627;-61
2024/01/25 02:01:52;;;;;;;15.35;5.00;;;8.70;99.90;;;9.48;92.38;99037.28;10360772;28;20222;-61
2024/01/25 02:06:56;;;;;;;16.10;5.03;;;8.80;99.90;;;9.41;92.87;99037.56;10360361;28;20230;-61
2024/01/25 02:12:04;;;;;;;17.27;4.93;;;8.80;99.90;;;9.41;93.21;99042.66;10359222;28;20232;-61
2024/01/25 02:17:08;;;;;;;20.33;4.95;;;8.80;99.90;;;9.53;93.01;99029.09;10357879;28;20246;-61
2024/01/25 02:22:11;;;;;;;16.02;4.75;;;8.90;99.90;;;9.47;93.71;99019.28;10361019;28;20230;-61
2024/01/25 02:27:16;;;;;;;16.73;5.13;;;8.80;99.90;;;9.36;93.85;99027.75;10356871;28;20233;-61
2024/01/25 02:32:19;;;;;;;17.17;4.70;;;8.70;99.90;;;9.46;93.67;99037.91;10353478;28;20240;-61
2024/01/25 02:37:23;;;;;;;19.95;5.05;;;8.70;99.90;;;9.47;93.26;99030.41;10360362;28;20276;-61
2024/01/25 02:42:27;;;;;;;16.05;4.75;;;8.80;99.90;;;9.78;90.49;99022.59;10356895;28;20226;-61
2024/01/25 02:47:30;;;;;;;15.57;4.60;;;9.00;99.90;;;9.64;90.73;99028.28;10357113;28;20269;-61
2024/01/25 02:52:34;;;;;;;17.73;4.93;;;9.00;99.90;;;9.56;90.18;99031.91;10359062;28;20226;-61
2024/01/25 02:57:38;;;;;;;18.30;4.82;;;8.90;99.90;;;9.41;91.87;99034.09;10353972;28;20226;-61
2024/01/25 03:02:41;;;;;;;16.15;4.90;;;8.80;99.90;;;9.41;92.09;99037.56;10360357;28;20241;-61
2024/01/25 03:07:45;;;;;;;14.80;4.80;;;8.70;99.90;;;9.66;90.12;99042.06;10357680;28;20336;-61
2024/01/25 03:12:50;;;;;;;12.57;4.30;;;8.90;99.90;;;9.44;90.76;99035.25;10355109;28;20237;-61
2024/01/25 03:17:53;;;;;;;14.45;4.40;;;8.80;99.90;;;9.50;90.76;99039.03;10353004;28;20280;-61
2024/01/25 03:22:56;;;;;;;16.50;5.32;;;8.80;99.90;;;9.51;91.09;99045.97;10354681;28;20718;-61
2024/01/25 03:28:02;;;;;;;16.45;5.25;;;8.90;99.90;;;9.56;91.56;99053.22;10356727;28;20768;-61
2024/01/25 03:33:05;;;;;;;12.80;4.30;;;8.90;99.90;;;9.61;90.77;99054.44;10356551;28;20228;-60
2024/01/25 03:38:09;;;;;;;14.45;4.80;;;8.90;99.90;;;9.45;91.42;99071.88;10356026;28;20254;-61
2024/01/25 03:43:13;;;;;;;12.82;5.05;;;8.80;99.90;;;9.53;91.08;99064.81;10358384;28;20317;-61
2024/01/25 03:48:24;;;;;;;13.13;4.93;;;8.80;99.90;;;9.44;90.78;99065.88;10351768;28;20288;-61
2024/01/25 03:53:27;;;;;;;15.82;4.90;;;8.70;99.90;;;9.48;90.40;99075.56;10355133;28;20226;-61
2024/01/25 03:58:32;;;;;;;18.13;5.07;;;8.70;99.90;;;9.31;91.32;99090.28;10355614;28;20226;-61
2024/01/25 04:03:36;;;;;;;11.98;4.95;;;8.60;99.90;;;9.28;92.68;99085.81;10351877;28;20273;-61
2024/01/25 04:08:39;;;;;;;13.00;4.70;;;8.60;99.90;;;9.45;90.96;99085.53;10353879;28;20887;-61
2024/01/25 04:13:44;;;;;;;15.15;5.03;;;8.70;99.90;;;9.37;91.12;99095.88;10351347;28;20235;-61
2024/01/25 04:18:47;;;;;;;15.32;4.68;;;8.60;99.90;;;9.21;91.69;99086.06;10353289;28;20250;-61
2024/01/25 04:23:50;;;;;;;18.10;5.25;;;8.50;99.90;;;9.39;91.21;99087.56;10353482;28;20227;-61
2024/01/25 04:28:55;;;;;;;15.65;4.45;;;8.50;99.90;;;9.19;90.70;99097.81;10351600;28;20766;-61
2024/01/25 04:33:58;;;;;;;16.40;5.53;;;8.50;99.90;;;9.10;91.31;99097.03;10353899;28;20743;-61
2024/01/25 04:39:01;;;;;;;16.02;4.85;;;8.40;99.90;;;9.02;91.96;99089.66;10352924;28;20233;-61
2024/01/25 04:44:06;;;;;;;17.70;5.10;;;8.40;99.90;;;9.06;91.70;99110.31;10349831;28;20233;-62
2024/01/25 04:49:09;;;;;;;19.50;5.22;;;8.30;99.90;;;9.03;91.75;99111.81;10348368;28;20402;-61
2024/01/25 04:54:15;;;;;;;13.00;4.63;;;8.30;99.90;;;8.88;92.39;99118.22;10350454;28;20230;-61
2024/01/25 04:59:19;;;;;;;14.95;5.05;;;8.20;99.90;;;8.80;92.66;99125.22;10351149;28;20230;-61
2024/01/25 05:04:22;;;;;;;16.40;5.93;;;8.20;99.90;;;8.87;92.65;99134.28;10347709;28;20639;-61
2024/01/25 05:09:26;;;;;;;17.90;5.55;;;8.20;99.90;;;8.86;92.46;99135.03;10352695;28;20341;-61
2024/01/25 05:14:30;;;;;;;16.15;4.80;;;8.10;99.90;;;8.74;93.21;99146.75;10347759;28;20229;-61
2024/01/25 05:19:34;;;;;;;14.60;4.70;;;8.10;99.90;;;8.71;92.64;99143.94;10348960;28;20245;-61
2024/01/25 05:24:37;;;;;;;13.27;4.85;;;8.00;99.90;;;8.62;93.36;99143.16;10349724;28;20237;-61
2024/01/25 05:29:41;;;;;;;18.07;5.47;;;7.90;99.90;;;8.53;93.24;99151.81;10349005;28;20226;-62
2024/01/25 05:34:45;;;;;;;14.40;4.85;;;7.80;99.90;;;8.46;92.87;99146.94;10348782;28;20226;-61
2024/01/25 05:39:48;;;;;;;12.75;4.57;;;7.70;99.90;;;8.38;92.96;99140.25;10348485;28;20245;-61
2024/01/25 05:44:53;;;;;;;15.02;4.80;;;7.70;99.90;;;8.40;92.66;99145.50;10339575;28;20227;-61
2024/01/25 05:49:56;;;;;;;17.92;5.53;;;7.70;99.90;;;8.42;91.75;99147.44;10354299;28;20228;-61
2024/01/25 05:55:00;;;;;;;19.63;5.70;;;7.70;99.90;;;8.39;91.39;99165.00;10354293;28;20222;-61
2024/01/25 06:00:12;;;;;;;18.30;5.60;;;7.70;99.90;;;8.36;91.41;99174.91;10354352;28;20226;-60
2024/01/25 06:05:15;;;;;;;18.23;6.03;;;7.70;99.90;;;8.33;91.97;99178.06;10365007;28;20320;-60
2024/01/25 06:10:19;;;;;;;13.53;4.90;;;7.60;99.90;;;8.27;92.51;99181.72;10360627;28;20234;-60
2024/01/25 06:15:23;;;;;;;17.85;5.43;;;7.50;99.90;;;8.19;93.33;99175.97;10349995;28;20231;-63
2024/01/25 06:20:26;;;;;;;15.63;4.73;;;7.50;99.90;;;8.19;92.32;99188.72;10351374;28;20825;-62
2024/01/25 06:25:30;;;;;;;16.10;5.87;;;7.50;99.90;;;8.09;93.00;99187.00;10346132;28;20680;-61
2024/01/25 06:30:36;;;;;;;17.07;5.10;;;7.40;99.90;;;7.94;92.99;99180.56;10347368;28;20227;-62
2024/01/25 06:35:39;;;;;;;12.73;4.80;;;7.30;99.90;;;7.88;93.16;99185.09;10354624;28;20540;-61
2024/01/25 06:40:43;;;;;;;9.87;4.70;;;7.10;99.90;;;7.67;93.32;99174.81;10352002;28;20285;-61
2024/01/25 06:45:48;;;;;;;16.60;4.73;;;7.00;99.90;;;7.52;94.00;99175.06;10351964;28;20238;-60
2024/01/25 06:50:51;;;;;;;15.57;5.00;;;6.80;99.90;;;7.40;94.12;99182.50;10356360;28;20288;-60
2024/01/25 06:55:54;;;;;;;16.00;5.20;;;6.70;99.90;;;7.28;94.90;99194.09;10353518;28;20237;-60
2024/01/25 07:01:00;;;;;;;13.80;4.90;;;6.60;99.90;;;7.20;95.07;99199.38;10348684;28;20362;-59
2024/01/25 07:06:05;;;;;;;15.70;5.07;;;6.50;99.90;;;7.15;95.28;99215.88;10355925;28;20233;-61
2024/01/25 07:11:08;;;;;;;16.03;5.77;;;6.50;99.90;;;7.11;95.56;99221.41;10354988;28;20234;-60
2024/01/25 07:16:13;;;;;;;15.20;5.13;;;6.50;99.90;;;7.17;96.09;99227.06;10350554;28;20368;-60
2024/01/25 07:21:16;;;;;;;12.77;4.80;;;6.50;99.90;;;7.26;95.76;99224.47;10359630;28;20650;-59
2024/01/25 07:26:20;;;;;;;14.07;4.80;;;6.60;99.90;;;7.33;96.41;99223.41;10357629;28;20252;-62
2024/01/25 07:31:25;;;;;;;15.77;5.20;;;6.70;99.90;;;7.39;96.12;99237.56;10348170;28;20227;-62
2024/01/25 07:36:28;;;;;;;14.13;5.00;;;6.80;99.90;;;7.44;95.57;99231.25;10345952;28;20583;-61
2024/01/25 07:41:32;;;;;;;15.97;5.33;;;6.80;99.90;;;7.49;95.45;99224.03;10342874;28;20234;-63
2024/01/25 07:46:38;;;;;;;17.47;5.63;;;6.80;99.90;;;7.52;95.31;99221.75;10338255;28;20234;-62
2024/01/25 07:51:42;;;;;;;14.80;5.10;;;6.90;99.90;;;7.50;95.24;99240.16;10352006;28;20268;-61
2024/01/25 07:56:45;;;;;;;12.90;5.43;;;6.90;99.90;;;7.57;95.79;99245.06;10349722;28;20226;-61
2024/01/25 08:01:50;;;;;;;17.00;5.90;;;6.90;99.90;;;7.65;95.54;99262.81;10351777;28;21038;-61
2024/01/25 08:06:54;;;;;;;15.70;6.03;;;7.00;99.90;;;7.80;95.27;99257.34;10352953;28;20232;-61
2024/01/25 08:11:57;;;;;;;18.47;6.90;;;7.10;99.90;;;7.78;94.39;99258.84;10350149;28;20458;-62
2024/01/25 08:17:02;;;;;;;17.23;7.37;;;7.10;99.90;;;7.95;95.07;99256.16;10341535;28;20361;-60
2024/01/25 08:22:06;;;;;;;13.13;5.70;;;7.30;99.90;;;8.14;95.19;99261.25;10360732;28;21132;-59
2024/01/25 08:27:21;;;;;;;19.60;7.27;;;7.50;99.90;;;8.45;95.13;99248.72;10406225;28;20244;-63
2024/01/25 08:32:31;;;;;;;17.35;6.80;;;7.80;99.90;;;8.68;94.43;99243.97;10391471;28;20229;-61
2024/01/25 08:37:36;;;;;;;17.30;6.03;;;8.00;99.90;;;8.86;93.55;99244.66;10405627;23;20257;-62
2024/01/25 08:42:39;;;;;;;16.70;6.32;;;8.10;99.90;;;8.88;92.37;99258.44;10389562;28;20232;-63
2024/01/25 08:47:46;;;;;;;15.70;6.50;;;8.20;99.90;;;8.91;92.30;99258.69;10388235;28;21880;-61
2024/01/25 08:52:49;;;;;;;22.10;6.90;;;8.20;99.90;;;8.96;91.93;99276.97;10389805;28;20226;-61
2024/01/25 08:57:52;;;;;;;18.38;6.00;;;8.30;99.90;;;9.17;91.32;99272.78;10416538;28;20229;-61
2024/01/25 09:02:57;;;;;;;16.40;6.03;;;8.50;99.90;;;9.47;90.30;99280.50;10426478;28;20327;-61
2024/01/25 09:08:00;;;;;;;18.15;6.30;;;8.80;99.90;;;9.64;89.97;99287.03;10422385;28;20243;-61
2024/01/25 09:13:04;;;;;;;15.57;5.07;;;9.00;99.90;;;10.04;88.17;99297.06;10437817;28;20355;-62
2024/01/25 09:18:08;;;;;;;20.45;6.38;;;9.20;99.90;;;10.09;88.45;99300.91;10397251;28;20226;-62
2024/01/25 09:23:12;;;;;;;21.02;5.65;;;9.20;99.90;;;10.18;87.21;99305.88;10390095;28;20259;-61
2024/01/25 09:28:16;;;;;;;19.58;5.72;;;9.30;99.90;;;10.18;85.51;99304.19;10411726;28;20229;-62
2024/01/25 09:33:21;;;;;;;19.50;5.65;;;9.20;99.90;;;9.95;87.33;99311.63;10437832;28;20700;-61
2024/01/25 09:38:24;;;;;;;17.20;4.70;;;9.20;99.90;;;10.07;87.20;99312.66;10436055;28;20236;-62
2024/01/25 09:43:28;;;;;;;20.65;6.07;;;9.40;99.90;;;10.38;85.40;99299.06;10435955;28;20278;-61
2024/01/25 09:48:33;;;;;;;19.63;5.53;;;9.80;99.90;;;10.60;85.20;99308.50;10433639;28;20225;-61
2024/01/25 09:53:38;;;;;;;52.30;31.70;;;10.10;99.90;;;10.94;82.11;99311.19;10436545;28;20677;-61
2024/01/25 09:58:44;;;;;;;18.38;7.57;;;10.30;99.90;;;11.03;81.32;99322.13;10395492;28;20218;-61
2024/01/25 10:03:48;;;;;;;14.73;6.75;;;10.30;99.90;;;11.09;81.02;99309.81;10395635;28;20234;-61
2024/01/25 10:08:53;;;;;;;16.63;7.63;;;10.20;99.90;;;10.98;79.40;99318.31;10433925;28;20750;-61
2024/01/25 10:13:56;;;;;;;18.65;5.40;;;10.30;99.90;;;10.65;79.51;99320.00;10436638;28;20311;-61
2024/01/25 10:19:02;;;;;;;17.80;5.45;;;10.00;99.90;;;10.55;78.97;99322.56;10433146;28;20751;-61
2024/01/25 10:24:07;;;;;;;16.05;5.00;;;10.10;99.90;;;10.62;79.88;99319.75;10431194;28;20232;-61
2024/01/25 10:29:11;;;;;;;16.23;5.88;;;10.10;99.90;;;10.45;79.33;99317.50;10438796;28;20314;-61
2024/01/25 10:34:17;;;;;;;16.52;5.10;;;9.90;99.90;;;10.34;79.79;99314.06;10396837;28;20225;-61
2024/01/25 10:39:22;;;;;;;16.00;5.30;;;9.60;99.90;;;10.44;79.63;99310.56;10413137;28;20280;-61
2024/01/25 10:44:26;;;;;;;15.90;5.72;;;9.60;99.90;;;10.34;79.56;99314.94;10427725;28;20236;-61
2024/01/25 10:49:31;;;;;;;20.70;5.72;;;9.70;99.90;;;10.25;79.63;99306.50;10433599;28;20234;-61
2024/01/25 10:54:35;;;;;;;14.93;5.18;;;9.70;99.90;;;10.29;78.39;99300.91;10434808;28;20296;-61
2024/01/25 10:59:38;;;;;;;17.25;5.18;;;9.70;99.90;;;10.76;77.25;99278.28;10433831;28;20229;-62
2024/01/25 11:04:54;;;;;;;15.02;5.38;;;10.10;99.90;;;11.05;76.96;99272.88;10424437;28;20589;-62
2024/01/25 11:09:58;;;;;;;16.15;5.03;;;10.60;99.90;;;11.25;73.19;99268.41;10430219;28;20231;-62
2024/01/25 11:15:09;;;;;;;14.70;4.53;;;10.80;99.90;;;11.40;69.19;99256.78;10432921;28;20304;-62
2024/01/25 11:20:15;;;;;;;18.48;4.90;;;10.90;99.90;;;11.40;67.97;99254.22;10432283;28;20235;-62
2024/01/25 11:25:22;;;;;;;12.55;4.43;;;10.90;99.90;;;11.45;70.60;99242.66;10435033;28;20325;-62
2024/01/25 11:30:26;;;;;;;13.38;4.80;;;11.00;99.90;;;11.66;69.18;99228.00;10431277;28;20330;-61
2024/01/25 11:35:31;;;;;;;14.43;4.65;;;11.10;99.90;;;11.79;69.06;99234.03;10403245;28;20231;-61
2024/01/25 11:40:35;;;;;;;14.18;4.45;;;11.30;99.90;;;12.06;68.61;99238.69;10405446;28;20248;-61
2024/01/25 11:45:42;;;;;;;15.65;4.63;;;11.50;99.90;;;12.39;69.58;99231.69;10432468;28;20233;-61
2024/01/25 11:50:49;;;;;;;14.65;4.10;;;11.80;99.90;;;12.38;66.79;99215.38;10426301;28;20234;-62
2024/01/25 11:55:56;;;;;;;11.45;4.25;;;11.80;99.90;;;12.69;65.33;99211.56;10420444;28;20243;-61
2024/01/25 12:01:00;;;;;;;13.68;4.53;;;12.10;99.90;;;12.67;64.70;99196.03;10428752;28;20304;-61
2024/01/25 12:06:05;;;;;;;12.05;4.47;;;12.10;99.90;;;12.57;63.16;99196.19;10411072;28;20536;-62
2024/01/25 12:11:10;;;;;;;10.57;4.13;;;11.80;99.90;;;12.57;63.57;99191.94;10417695;28;20229;-61
2024/01/25 12:16:14;;;;;;;14.45;4.40;;;11.80;99.90;;;12.16;65.71;99197.59;10396319;28;20236;-61
2024/01/25 12:21:19;;;;;;;14.98;4.80;;;11.30;99.90;;;12.51;64.70;99185.50;10428679;28;20233;-61
2024/01/25 12:26:22;;;;;;;14.70;4.38;;;11.60;99.90;;;12.56;63.68;99179.91;10429927;28;20229;-61
2024/01/25 12:31:25;;;;;;;15.18;4.35;;;11.70;99.90;;;12.60;65.09;99174.22;10430765;28;20228;-61
2024/01/25 12:36:30;;;;;;;16.00;4.75;;;11.90;99.90;;;12.39;66.75;99175.28;10431390;28;20224;-61
2024/01/25 12:41:33;;;;;;;15.18;4.57;;;11.80;99.90;;;12.29;65.90;99171.16;10437708;28;20240;-61
2024/01/25 12:46:36;;;;;;;14.15;4.35;;;11.60;99.90;;;12.25;65.96;99156.34;10438650;28;20980;-61
2024/01/25 12:51:41;;;;;;;11.38;3.30;;;11.60;99.90;;;12.59;64.58;99159.63;10436717;28;20322;-61
2024/01/25 12:56:44;;;;;;;13.93;3.88;;;11.70;99.90;;;12.67;62.45;99151.53;10435843;28;20225;-61
2024/01/25 13:01:48;;;;;;;13.23;4.10;;;11.90;99.90;;;12.95;61.94;99154.34;10434947;28;20681;-61
2024/01/25 13:06:55;;;;;;;10.63;3.47;;;12.20;99.90;;;12.95;61.69;99170.63;10413781;28;20535;-61
2024/01/25 13:11:58;;;;;;;11.77;3.70;;;12.20;99.90;;;13.16;60.51;99149.78;10437348;28;20224;-61
2024/01/25 13:17:02;;;;;;;11.80;4.10;;;12.40;99.90;;;13.02;63.56;99152.31;10439119;28;20232;-61
2024/01/25 13:22:06;;;;;;;12.77;4.15;;;12.20;99.90;;;12.47;62.36;99145.91;10439382;28;20224;-62
2024/01/25 13:27:09;;;;;;;8.80;3.50;;;11.90;99.90;;;12.46;63.84;99141.56;10432066;28;20225;-61
2024/01/25 13:32:13;;;;;;;11.70;3.70;;;11.80;99.90;;;12.36;63.65;99123.75;10431478;28;20236;-61
2024/01/25 13:37:18;;;;;;;14.57;3.97;;;11.60;99.90;;;12.33;63.89;99108.16;10436815;28;20291;-61
2024/01/25 13:42:21;;;;;;;13.80;3.78;;;11.60;99.90;;;12.27;63.54;99092.34;10425676;28;20326;-61
2024/01/25 13:47:24;;;;;;;12.27;4.20;;;11.50;99.90;;;12.31;63.31;99084.09;10419075;28;20237;-61
2024/01/25 13:52:28;;;;;;;8.90;3.45;;;11.40;99.90;;;12.54;61.00;99084.03;10437808;28;20240;-61
2024/01/25 13:57:32;;;;;;;10.75;3.60;;;11.60;99.90;;;12.44;62.31;99089.28;10429254;28;20239;-61
2024/01/25 14:02:35;;;;;;;8.55;3.33;;;11.50;99.90;;;12.21;63.65;99092.81;10392646;28;20225;-61
2024/01/25 14:07:39;;;;;;;12.82;3.60;;;11.30;99.90;;;12.20;63.86;99079.91;10395895;28;20694;-62
2024/01/25 14:12:43;;;;;;;9.52;2.95;;;11.30;99.90;;;12.39;62.39;99060.78;10397825;28;20856;-62
2024/01/25 14:17:47;;;;;;;10.50;3.90;;;11.50;99.90;;;12.06;64.65;99056.75;10433053;28;20236;-62
2024/01/25 14:22:52;;;;;;;10.05;3.90;;;11.20;99.90;;;12.06;63.81;99060.97;10440304;28;20549;-62
2024/01/25 14:27:55;;;;;;;10.05;3.38;;;11.20;99.90;;;12.01;64.32;99050.38;10437830;28;20286;-62
2024/01/25 14:33:02;;;;;;;11.77;3.83;;;11.10;99.90;;;11.94;64.68;99053.31;10433417;28;20244;-62
2024/01/25 14:38:07;;;;;;;9.88;3.70;;;11.10;99.90;;;11.90;65.79;99061.53;10436343;28;20229;-61
2024/01/25 14:43:10;;;;;;;9.98;4.07;;;11.10;99.90;;;12.04;64.87;99047.16;10443773;28;20707;-62
2024/01/25 14:48:13;;;;;;;10.57;3.65;;;11.20;99.90;;;12.07;65.15;99058.50;10434937;28;20237;-62
2024/01/25 14:53:18;;;;;;;12.32;3.40;;;11.10;99.90;;;11.81;66.32;99071.13;10433901;28;20224;-62
2024/01/25 14:58:23;;;;;;;8.25;3.25;;;11.00;99.90;;;11.74;66.76;99054.44;10433452;28;20842;-61
2024/01/25 15:03:26;;;;;;;14.15;4.05;;;10.90;99.90;;;11.58;67.63;99060.09;10433473;22;20240;-66
2024/01/25 15:08:30;;;;;;;11.57;4.32;;;10.60;99.90;;;11.33;68.38;99052.31;10399419;28;20230;-67
2024/01/25 15:13:34;;;;;;;11.13;4.15;;;10.50;99.90;;;11.19;69.21;99047.88;10400823;28;20252;-67
2024/01/25 15:18:37;;;;;;;12.63;3.85;;;10.40;99.90;;;10.95;69.48;99047.81;10402225;28;20226;-67
2024/01/25 15:23:42;;;;;;;11.77;4.05;;;10.20;99.90;;;10.87;71.26;99050.56;10397352;28;20305;-67
2024/01/25 15:28:45;;;;;;;11.20;3.67;;;10.10;99.90;;;10.75;71.23;99066.75;10393374;28;20226;-67
2024/01/25 15:33:49;;;;;;;7.80;3.47;;;10.00;99.90;;;10.62;71.67;99065.75;10395319;28;20238;-65
2024/01/25 15:39:00;;;;;;;7.28;3.20;;;9.80;99.90;;;10.47;72.51;99066.34;10395525;28;20984;-66
2024/01/25 15:44:03;;;;;;;8.27;3.38;;;9.70;99.90;;;10.30;73.72;99057.38;10396975;28;20315;-66
2024/01/25 15:49:06;;;;;;;7.13;3.65;;;9.50;99.90;;;10.09;74.12;99060.78;10400117;28;20720;-65
2024/01/25 15:54:11;;;;;;;12.70;5.00;;;9.20;99.90;;;9.92;75.52;99047.56;10401527;28;20271;-68
2024/01/25 15:59:14;;;;;;;11.68;5.05;;;9.10;99.90;;;9.70;75.97;99047.56;10394395;28;20493;-67
2024/01/25 16:04:17;;;;;;;7.75;4.60;;;8.90;99.90;;;9.54;77.05;99056.41;10388605;28;20225;-66
2024/01/25 16:09:22;;;;;;;10.80;4.07;;;8.70;99.90;;;9.39;78.93;99056.97;10393372;28;20225;-66
2024/01/25 16:14:25;;;;;;;12.02;5.82;;;8.60;99.90;;;9.24;80.49;99058.25;10393318;28;20230;-66
2024/01/25 16:19:28;;;;;;;9.60;5.30;;;8.40;99.90;;;9.16;80.42;99042.34;10391855;28;20237;-66
2024/01/25 16:24:33;;;;;;;10.90;4.97;;;8.30;99.90;;;9.07;82.83;99045.78;10402104;28;20747;-66
2024/01/25 16:29:36;;;;;;;9.13;4.72;;;8.30;99.90;;;9.01;83.07;99038.50;10392056;28;20236;-66
2024/01/25 16:34:39;;;;;;;8.23;5.18;;;8.20;99.90;;;9.01;83.52;99041.97;10391740;28;20228;-67
2024/01/25 16:39:44;;;;;;;14.70;8.63;;;8.20;99.90;;;8.93;84.58;99047.22;10394331;28;20269;-67
2024/01/25 16:44:47;;;;;;;16.95;9.95;;;8.20;99.90;;;8.89;84.88;99050.25;10387665;28;20431;-67
2024/01/25 16:49:50;;;;;;;16.15;9.82;;;8.10;99.90;;;8.88;85.15;99049.38;10394092;28;20617;-66
2024/01/25 16:54:55;;;;;;;15.38;10.30;;;8.10;99.90;;;8.79;86.16;99053.72;10392660;28;20248;-66
2024/01/25 16:59:58;;;;;;;15.95;9.85;;;8.00;99.90;;;8.64;87.09;99060.06;10391927;28;20245;-66
2024/01/25 17:05:01;;;;;;;12.82;8.75;;;7.80;99.90;;;8.49;87.75;99063.09;10389445;28;20225;-66
2024/01/25 17:10:09;;;;;;;12.15;8.75;;;7.70;99.90;;;8.33;88.17;99063.44;10392804;28;20230;-66
2024/01/25 17:15:12;;;;;;;13.80;9.23;;;7.60;99.90;;;8.34;88.37;99065.22;10384657;28;20824;-66
2024/01/25 17:20:17;;;;;;;12.63;8.48;;;7.60;99.90;;;8.26;89.47;99065.31;10381535;28;20276;-65
2024/01/25 17:25:22;;;;;;;12.23;6.93;;;7.50;99.90;;;8.25;89.77;99068.66;10379132;28;20651;-65
2024/01/25 17:30:25;;;;;;;10.30;5.88;;;7.50;99.90;;;8.22;90.27;99066.72;10385876;28;20230;-65
2024/01/25 17:35:28;;;;;;;11.50;5.85;;;7.50;99.90;;;8.24;90.29;99066.84;10387809;28;20651;-65
2024/01/25 17:40:33;;;;;;;15.10;9.02;;;7.50;99.90;;;8.28;90.98;99057.06;10364797;28;20226;-65
2024/01/25 17:45:36;;;;;;;15.25;8.02;;;7.50;99.90;;;8.27;90.61;99068.03;10380537;28;20229;-66
2024/01/25 17:50:39;;;;;;;10.73;6.05;;;7.50;99.90;;;8.21;91.33;99057.31;10388651;28;20583;-66
2024/01/25 17:55:44;;;;;;;13.32;6.60;;;7.40;99.90;;;8.20;91.49;99067.34;10392497;28;20325;-66
2024/01/25 18:00:48;;;;;;;13.02;7.32;;;7.40;99.90;;;8.24;91.44;99074.47;10388142;28;20313;-66
2024/01/25 18:05:53;;;;;;;12.50;6.60;;;7.50;99.90;;;8.25;91.80;99081.38;10382388;28;20388;-66
2024/01/25 18:10:58;;;;;;;10.40;6.40;;;7.40;99.90;;;8.17;91.86;99079.84;10396174;28;20313;-66
2024/01/25 18:16:01;;;;;;;22.63;11.73;;;7.40;99.90;;;8.21;91.84;99076.78;10384696;28;20230;-66
2024/01/25 18:21:05;;;;;;;12.77;7.57;;;7.50;99.90;;;8.18;92.94;99079.06;10373539;28;20236;-66
2024/01/25 18:26:10;;;;;;;10.87;6.47;;;7.40;99.90;;;8.21;92.99;99076.78;10398974;28;20240;-67
2024/01/25 18:31:13;;;;;;;14.73;5.63;;;7.50;99.90;;;8.20;91.98;99073.34;10387775;28;20229;-66
2024/01/25 18:36:16;;;;;;;15.87;8.33;;;7.40;99.90;;;8.31;90.95;99071.72;10395571;28;20229;-67
2024/01/25 18:41:21;;;;;;;17.20;9.17;;;7.40;99.90;;;8.11;91.53;99070.91;10390863;28;20269;-66
2024/01/25 18:46:24;;;;;;;15.47;9.37;;;7.40;99.90;;;8.06;93.02;99077.25;10389479;28;20237;-67
2024/01/25 18:51:27;;;;;;;16.83;9.30;;;7.40;99.90;;;8.01;94.34;99082.69;10395341;28;20230;-66
2024/01/25 18:56:32;;;;;;;12.63;7.93;;;7.40;99.90;;;7.97;95.91;99062.84;10387805;28;20236;-67
2024/01/25 19:01:36;;;;;;;13.23;7.77;;;7.40;99.90;;;7.94;97.31;99073.63;10398705;28;20226;-66
2024/01/25 19:06:45;;;;;;;12.40;7.67;;;7.30;99.90;;;7.78;97.66;99071.41;10387424;28;20233;-66
2024/01/25 19:11:50;;;;;;;13.50;9.43;;;7.20;99.90;;;7.76;98.99;99082.22;10381076;28;20257;-66
2024/01/25 19:16:53;;;;;;;18.70;11.60;;;7.20;99.90;;;7.81;99.71;99078.41;10391198;28;20267;-66
2024/01/25 19:21:56;;;;;;;19.30;11.13;;;7.20;99.90;;;7.83;99.85;99066.72;10392535;28;20233;-66
2024/01/25 19:27:01;;;;;;;14.03;9.70;;;7.10;99.90;;;7.68;100.00;99059.53;10400360;28;20307;-66
2024/01/25 19:32:05;;;;;;;25.20;12.07;;;7.10;99.90;;;7.70;100.00;99062.22;10393422;28;20234;-66
2024/01/25 19:37:08;;;;;;;23.83;11.93;;;7.10;99.90;;;7.68;100.00;99067.16;10388082;28;20232;-66
2024/01/25 19:42:13;;;;;;;22.53;14.70;;;7.10;99.90;;;7.75;100.00;99075.34;10370751;28;21691;-66
2024/01/25 19:47:16;;;;;;;14.27;9.10;;;7.10;99.90;;;7.64;100.00;99072.75;10373345;28;20240;-66
2024/01/25 19:52:19;;;;;;;14.67;8.97;;;7.00;99.90;;;7.61;100.00;99067.41;10392735;28;20676;-66
2024/01/25 19:57:25;;;;;;;14.73;8.63;;;7.00;99.90;;;7.56;100.00;99076.28;10395907;28;20804;-66
2024/01/25 20:02:29;;;;;;;15.87;10.60;;;7.00;99.90;;;7.58;100.00;99054.41;10381886;28;20237;-67
2024/01/25 20:07:34;;;;;;;12.87;9.23;;;7.10;99.90;;;7.61;100.00;99057.22;10390509;28;20636;-65
2024/01/25 20:12:40;;;;;;;14.77;9.73;;;7.10;99.90;;;7.67;100.00;99055.22;10363172;28;20674;-66
2024/01/25 20:17:44;;;;;;;17.77;10.13;;;7.10;99.90;;;7.71;100.00;99058.91;10383978;28;20316;-66
2024/01/25 20:22:47;;;;;;;14.83;10.03;;;7.10;99.90;;;7.81;100.00;99052.97;10386603;28;20335;-66
2024/01/25 20:27:51;;;;;;;11.37;8.40;;;7.10;99.90;;;7.79;100.00;99054.50;10396114;28;20673;-66
2024/01/25 20:32:54;;;;;;;14.43;9.60;;;7.10;99.90;;;7.76;100.00;99046.59;10385614;28;20360;-65
2024/01/25 20:37:58;;;;;;;11.43;7.67;;;7.00;99.90;;;7.78;100.00;99040.84;10388583;28;20226;-66
2024/01/25 20:43:02;;;;;;;12.87;7.23;;;7.00;99.90;;;7.72;100.00;99030.16;10385545;28;20232;-65
2024/01/25 20:48:06;;;;;;;13.37;7.73;;;7.00;99.90;;;7.65;100.00;99028.75;10380624;28;20233;-66
2024/01/25 20:53:10;;;;;;;14.73;8.80;;;7.00;99.90;;;7.70;100.00;99038.41;10385398;28;20241;-65
2024/01/25 20:58:14;;;;;;;13.30;9.73;;;7.00;99.90;;;7.75;100.00;99026.97;10383019;28;20774;-65
2024/01/25 21:03:18;;;;;;;15.73;10.67;;;7.10;99.90;;;7.77;100.00;99039.09;10383228;28;20233;-64
2024/01/25 21:08:22;;;;;;;14.57;9.10;;;7.10;99.90;;;7.80;100.00;99034.25;10369898;28;20237;-66